• Join FlightAware (Why Join?)
  • Login
  • US Flag 
11:55AM EST


 

Airport Tracker/Info


-or-


 

Live Flight TrackerFlight Track Log ✈ BJS542 ✈ 23-Aug-2013 ✈ KSEE - MMPR / PVR

Flight Track Log - Related Links

Times and Time Zones

All times are in EDT time to prevent confusion due to time zone crossing. See the BJS542 flight status page for this flight to view local times or setup timezone preferences in your user account.

Time Position Orientation Groundspeed Altitude Reporting Facility
EDT Latitude Longitude Course Direction KTS MPH feet Rate Location/Type
03:11PM 32.8500 -116.9500 131° Southeast 216 249 4,900  Level Southern California TRACON
03:12PM 32.8333 -116.8833 107° East 256 295 7,700 2,640 Climbing Southern California TRACON
03:13PM 32.7647 -116.8625 166° South 285 328 10,300 2,700 Climbing Los Angeles Center
03:14PM 32.6833 -116.8836 192° South 296 341 13,400 3,420 Climbing Los Angeles Center
03:15PM 32.6000 -116.8833 180° South 339 390 16,800 3,180 Climbing Southern California TRACON
03:16PM 32.2551 -116.5955 131° Southeast  Level FlightAware Approximate
03:16PM 32.4833 -116.8667 173° South 366 421 19,700  Level Southern California TRACON
03:17PM 32.4019 -116.7708 135° Southeast 384 442 22,000 1,920 Climbing Los Angeles Center
03:18PM 32.3236 -116.6744 134° Southeast 404 465 24,000 1,980 Climbing Los Angeles Center
03:19PM 32.2431 -116.5736 133° Southeast 421 484 26,100 2,100 Climbing Los Angeles Center
03:20PM 32.1608 -116.4719 134° Southeast 429 494 28,400 2,400 Climbing Los Angeles Center
03:21PM 32.0633 -116.3472 133° Southeast 432 497 31,100 2,400 Climbing Los Angeles Center
03:22PM 31.9814 -116.2450 133° Southeast 432 497 33,400 2,100 Climbing Los Angeles Center
03:23PM 31.9019 -116.1442 133° Southeast 423 487 35,500 1,740 Climbing Los Angeles Center
03:24PM 31.8206 -116.0439 134° Southeast 425 489 37,100 1,680 Climbing Los Angeles Center
03:25PM 31.7225 -115.9208 133° Southeast 429 494 39,000 1,800 Climbing Los Angeles Center
03:27PM 31.6069 -115.7847 134° Southeast  Level FlightAware Approximate
03:34PM 31.0456 -115.1109 132° Southeast  Level FlightAware Approximate
03:35PM 30.9685 -115.0106 132° Southeast  Level FlightAware Approximate
03:36PM 30.8913 -114.9104 132° Southeast  Level FlightAware Approximate
03:37PM 30.8128 -114.8118 133° Southeast  Level FlightAware Approximate
03:38PM 30.7336 -114.7140 135° Southeast  Level FlightAware Approximate
03:39PM 30.6524 -114.6184 135° Southeast  Level FlightAware Approximate
03:40PM 30.5712 -114.5230 135° Southeast  Level FlightAware Approximate
03:41PM 30.4899 -114.4278 135° Southeast  Level FlightAware Approximate
03:42PM 30.4085 -114.3327 135° Southeast  Level FlightAware Approximate
03:43PM 30.3271 -114.2378 135° Southeast  Level FlightAware Approximate
03:44PM 30.2456 -114.1431 135° Southeast  Level FlightAware Approximate
03:45PM 30.1640 -114.0485 135° Southeast  Level FlightAware Approximate
03:46PM 30.0824 -113.9540 135° Southeast  Level FlightAware Approximate
03:47PM 30.0015 -113.8588 134° Southeast  Level FlightAware Approximate
03:48PM 29.9210 -113.7632 134° Southeast  Level FlightAware Approximate
03:49PM 29.8405 -113.6677 134° Southeast  Level FlightAware Approximate
03:50PM 29.7597 -113.5727 135° Southeast  Level FlightAware Approximate
03:51PM 29.6781 -113.4785 135° Southeast  Level FlightAware Approximate
03:52PM 29.5965 -113.3845 135° Southeast  Level FlightAware Approximate
03:53PM 29.5148 -113.2907 135° Southeast  Level FlightAware Approximate
03:54PM 29.4330 -113.1970 135° Southeast  Level FlightAware Approximate
03:55PM 29.3512 -113.1035 135° Southeast  Level FlightAware Approximate
03:56PM 29.2693 -113.0101 135° Southeast  Level FlightAware Approximate
03:57PM 29.1873 -112.9169 135° Southeast  Level FlightAware Approximate
03:58PM 29.1053 -112.8238 135° Southeast  Level FlightAware Approximate
03:59PM 29.0232 -112.7309 135° Southeast  Level FlightAware Approximate
04:00PM 28.9410 -112.6381 135° Southeast  Level FlightAware Approximate
04:01PM 28.8588 -112.5454 135° Southeast  Level FlightAware Approximate
04:02PM 28.7766 -112.4529 135° Southeast  Level FlightAware Approximate
04:03PM 28.6942 -112.3606 135° Southeast  Level FlightAware Approximate
04:04PM 28.6118 -112.2684 136° Southeast  Level FlightAware Approximate
04:05PM 28.5293 -112.1763 136° Southeast  Level FlightAware Approximate
04:06PM 28.4468 -112.0844 136° Southeast  Level FlightAware Approximate
04:07PM 28.3642 -111.9926 136° Southeast  Level FlightAware Approximate
04:08PM 28.2816 -111.9010 136° Southeast  Level FlightAware Approximate
04:09PM 28.1988 -111.8095 136° Southeast  Level FlightAware Approximate
04:10PM 28.1161 -111.7182 136° Southeast  Level FlightAware Approximate
04:11PM 28.0332 -111.6270 136° Southeast  Level FlightAware Approximate
04:12PM 27.9503 -111.5359 136° Southeast  Level FlightAware Approximate
04:13PM 27.8674 -111.4450 136° Southeast  Level FlightAware Approximate
04:14PM 27.7844 -111.3542 136° Southeast  Level FlightAware Approximate
04:15PM 27.7017 -111.2631 136° Southeast  Level FlightAware Approximate
04:16PM 27.6192 -111.1718 136° Southeast  Level FlightAware Approximate
04:17PM 27.5367 -111.0806 136° Southeast  Level FlightAware Approximate
04:18PM 27.4541 -110.9896 136° Southeast  Level FlightAware Approximate
04:19PM 27.3715 -110.8987 136° Southeast  Level FlightAware Approximate
04:20PM 27.2888 -110.8080 136° Southeast  Level FlightAware Approximate
04:21PM 27.2060 -110.7174 136° Southeast  Level FlightAware Approximate
04:22PM 27.1232 -110.6270 136° Southeast  Level FlightAware Approximate
04:23PM 27.0403 -110.5366 136° Southeast  Level FlightAware Approximate
04:24PM 26.9573 -110.4464 136° Southeast  Level FlightAware Approximate
04:25PM 26.8743 -110.3564 136° Southeast  Level FlightAware Approximate
04:26PM 26.7913 -110.2665 136° Southeast  Level FlightAware Approximate
04:27PM 26.7081 -110.1767 136° Southeast  Level FlightAware Approximate
04:28PM 26.6250 -110.0870 136° Southeast  Level FlightAware Approximate
04:29PM 26.5417 -109.9975 136° Southeast  Level FlightAware Approximate
04:30PM 26.4584 -109.9081 136° Southeast  Level FlightAware Approximate
04:31PM 26.3751 -109.8188 136° Southeast  Level FlightAware Approximate
04:32PM 26.2917 -109.7297 136° Southeast  Level FlightAware Approximate
04:33PM 26.2082 -109.6407 136° Southeast  Level FlightAware Approximate
04:34PM 26.1247 -109.5518 136° Southeast  Level FlightAware Approximate
04:35PM 26.0412 -109.4630 136° Southeast  Level FlightAware Approximate
04:36PM 25.9576 -109.3744 136° Southeast  Level FlightAware Approximate
04:37PM 25.8739 -109.2859 136° Southeast  Level FlightAware Approximate
04:38PM 25.7901 -109.1975 136° Southeast  Level FlightAware Approximate
04:39PM 25.7064 -109.1093 136° Southeast  Level FlightAware Approximate
04:40PM 25.6190 -109.0260 145° Southeast  Level FlightAware Approximate
04:41PM 25.5243 -108.9527 145° Southeast  Level FlightAware Approximate
04:42PM 25.4296 -108.8794 145° Southeast  Level FlightAware Approximate
04:43PM 25.3349 -108.8064 145° Southeast  Level FlightAware Approximate
04:44PM 25.2406 -108.7326 144° Southeast  Level FlightAware Approximate
04:45PM 25.1469 -108.6580 144° Southeast  Level FlightAware Approximate
04:46PM 25.0532 -108.5834 144° Southeast  Level FlightAware Approximate
04:47PM 24.9594 -108.5090 144° Southeast  Level FlightAware Approximate
04:48PM 24.8656 -108.4347 144° Southeast  Level FlightAware Approximate
04:49PM 24.7718 -108.3606 144° Southeast  Level FlightAware Approximate
04:50PM 24.6779 -108.2865 144° Southeast  Level FlightAware Approximate
04:51PM 24.5840 -108.2125 144° Southeast  Level FlightAware Approximate
04:52PM 24.4901 -108.1387 144° Southeast  Level FlightAware Approximate
04:53PM 24.3961 -108.0650 144° Southeast  Level FlightAware Approximate
04:54PM 24.3021 -107.9914 144° Southeast  Level FlightAware Approximate
04:55PM 24.2080 -107.9178 145° Southeast  Level FlightAware Approximate
04:56PM 24.1140 -107.8445 145° Southeast  Level FlightAware Approximate
04:57PM 24.0198 -107.7711 145° Southeast  Level FlightAware Approximate
04:58PM 23.9257 -107.6980 145° Southeast  Level FlightAware Approximate
04:59PM 23.8315 -107.6249 145° Southeast  Level FlightAware Approximate
05:00PM 23.7373 -107.5519 145° Southeast  Level FlightAware Approximate
05:01PM 23.6430 -107.4790 145° Southeast  Level FlightAware Approximate
05:02PM 23.5487 -107.4063 145° Southeast  Level FlightAware Approximate
05:03PM 23.4544 -107.3336 145° Southeast  Level FlightAware Approximate
05:04PM 23.3600 -107.2610 145° Southeast  Level FlightAware Approximate
05:05PM 23.2656 -107.1886 145° Southeast  Level FlightAware Approximate
05:06PM 23.1712 -107.1162 145° Southeast  Level FlightAware Approximate
05:07PM 23.0760 -107.0451 146° Southeast  Level FlightAware Approximate
05:08PM 22.9805 -106.9745 146° Southeast  Level FlightAware Approximate
05:09PM 22.8851 -106.9040 146° Southeast  Level FlightAware Approximate
05:10PM 22.7895 -106.8335 146° Southeast  Level FlightAware Approximate
05:11PM 22.6988 -106.7563 141° Southeast  Level FlightAware Approximate
05:12PM 22.6088 -106.6778 147° Southeast  Level FlightAware Approximate
05:13PM 22.5119 -106.6099 147° Southeast  Level FlightAware Approximate
05:14PM 22.4159 -106.5404 145° Southeast  Level FlightAware Approximate
05:15PM 22.3218 -106.4680 145° Southeast  Level FlightAware Approximate
05:16PM 22.2271 -106.3969 155° Southeast  Level FlightAware Approximate
05:17PM 22.1302 -106.3317 155° Southeast  Level FlightAware Approximate
05:18PM 22.0339 -106.2638 143° Southeast  Level FlightAware Approximate
05:19PM 21.9431 -106.1869 141° Southeast  Level FlightAware Approximate
05:20PM 21.8492 -106.1148 147° Southeast  Level FlightAware Approximate
05:21PM 21.7520 -106.0475 147° Southeast  Level FlightAware Approximate
05:22PM 21.6553 -105.9796 146° Southeast  Level FlightAware Approximate
05:23PM 21.5597 -105.9099 146° Southeast  Level FlightAware Approximate
05:24PM 21.4640 -105.8403 146° Southeast  Level FlightAware Approximate
05:25PM 21.3684 -105.7708 146° Southeast  Level FlightAware Approximate
05:26PM 21.2755 -105.6973 141° Southeast  Level FlightAware Approximate
05:27PM 21.1860 -105.6190 141° Southeast  Level FlightAware Approximate
05:28PM 21.0870 -105.5553 149° Southeast  Level FlightAware Approximate
05:29PM 20.9883 -105.4912 145° Southeast  Level FlightAware Approximate
05:30PM 20.8937 -105.4203 145° Southeast  Level FlightAware Approximate
05:31PM 20.8019 -105.3519 137° Southeast  Level FlightAware Approximate
05:32PM 20.7040 -105.2874 137° Southeast  Level FlightAware Approximate
05:33PM 20.6801 -105.2542 North  Level Estimated
05:34PM 20.6801 -105.2542 North  Level Estimated
05:35PM 20.6801 -105.2542 North  Level Estimated
05:36PM 20.6801 -105.2542 North  Level Estimated
05:37PM 20.6801 -105.2542 North  Level Estimated
05:38PM 20.6801 -105.2542 North  Level Estimated
05:39PM 20.6801 -105.2542 North  Level Estimated
05:40PM 20.6801 -105.2542 North  Level Estimated
05:41PM 20.6801 -105.2542 North  Level Estimated
05:42PM 20.6801 -105.2542 North  Level Estimated
05:43PM 20.6801 -105.2542 North  Level Estimated
05:44PM 20.6801 -105.2542 North  Level Estimated
05:45PM 20.6801 -105.2542 North  Level Estimated